createdAt,value
2024-01-16T00:00:13.381Z,94.91
2024-01-16T00:01:13.417Z,94.37
2024-01-16T00:02:13.407Z,94.66
2024-01-16T00:03:13.408Z,94.24
2024-01-16T00:04:13.684Z,93.71
2024-01-16T00:05:13.518Z,94.67
2024-01-16T00:06:13.517Z,94.07
2024-01-16T00:07:13.499Z,93.86
2024-01-16T00:08:13.429Z,92.92
2024-01-16T00:09:13.401Z,93.89
2024-01-16T00:10:13.417Z,93.26
2024-01-16T00:11:13.443Z,94.40
2024-01-16T00:12:13.398Z,94.13
2024-01-16T00:13:13.426Z,94.18
2024-01-16T00:14:13.469Z,94.12
2024-01-16T00:15:13.401Z,92.94
2024-01-16T00:16:13.436Z,94.01
2024-01-16T00:17:13.430Z,92.74
2024-01-16T00:18:13.572Z,93.48
2024-01-16T00:19:13.575Z,94.23
2024-01-16T00:20:13.483Z,93.03
2024-01-16T00:21:13.441Z,93.61
2024-01-16T00:22:13.428Z,92.57
2024-01-16T00:23:13.439Z,93.05
2024-01-16T00:24:13.451Z,94.33
2024-01-16T00:25:13.446Z,93.19
2024-01-16T00:26:13.563Z,92.10
2024-01-16T00:27:13.418Z,92.39
2024-01-16T00:28:13.423Z,93.55
2024-01-16T00:29:13.811Z,90.95
2024-01-16T00:30:13.455Z,92.53
2024-01-16T00:31:13.450Z,92.98
2024-01-16T00:32:13.458Z,92.16
2024-01-16T00:33:13.621Z,91.28
2024-01-16T00:34:13.485Z,92.12
2024-01-16T00:35:13.484Z,92.44
2024-01-16T00:36:13.476Z,93.21
2024-01-16T00:37:13.457Z,92.77
2024-01-16T00:38:13.507Z,92.76
2024-01-16T00:39:13.489Z,91.72
2024-01-16T00:40:13.488Z,90.95
2024-01-16T00:41:13.544Z,93.36
2024-01-16T00:42:13.483Z,91.84
2024-01-16T00:43:13.531Z,92.14
2024-01-16T00:44:13.550Z,93.52
2024-01-16T00:45:13.541Z,92.78
2024-01-16T00:46:13.581Z,91.79
2024-01-16T00:47:13.634Z,92.92
2024-01-16T00:48:13.865Z,92.79
2024-01-16T00:49:13.718Z,91.61
2024-01-16T00:50:13.657Z,91.30
2024-01-16T00:51:13.615Z,92.31
2024-01-16T00:52:13.673Z,91.54
2024-01-16T00:53:13.738Z,90.84
2024-01-16T00:54:13.709Z,90.68
2024-01-16T00:55:13.721Z,90.48
2024-01-16T00:56:13.930Z,90.62
2024-01-16T00:57:13.766Z,90.84
2024-01-16T00:58:13.769Z,90.55
2024-01-16T00:59:13.878Z,90.32
2024-01-16T01:00:13.794Z,90.29
2024-01-16T01:01:13.841Z,91.03
2024-01-16T01:02:13.860Z,92.30
2024-01-16T01:03:13.826Z,91.14
2024-01-16T01:04:13.919Z,90.52
2024-01-16T01:05:13.993Z,91.23
2024-01-16T01:06:13.966Z,90.74
2024-01-16T01:07:13.933Z,90.39
2024-01-16T01:08:13.993Z,91.26
2024-01-16T01:09:13.968Z,91.99
2024-01-16T01:10:14.013Z,90.58
2024-01-16T01:11:14.055Z,90.41
2024-01-16T01:12:14.018Z,91.90
2024-01-16T01:13:14.014Z,91.19
2024-01-16T01:14:14.202Z,91.50
2024-01-16T01:15:14.151Z,90.88
2024-01-16T01:16:14.092Z,89.75
2024-01-16T01:17:14.126Z,89.99
2024-01-16T01:18:14.220Z,90.03
2024-01-16T01:19:14.217Z,89.99
2024-01-16T01:20:14.186Z,89.98
2024-01-16T01:21:14.180Z,89.93
2024-01-16T01:22:14.188Z,91.55
2024-01-16T01:23:14.291Z,90.62
2024-01-16T01:24:14.244Z,90.81
2024-01-16T01:25:14.245Z,90.23
2024-01-16T01:26:14.353Z,89.25
2024-01-16T01:27:14.265Z,90.65
2024-01-16T01:28:14.333Z,90.11
2024-01-16T01:29:14.371Z,90.33
2024-01-16T01:30:14.419Z,90.67
2024-01-16T01:31:14.377Z,89.29
2024-01-16T01:32:14.423Z,91.86
2024-01-16T01:33:14.625Z,89.93
2024-01-16T01:34:14.500Z,89.49
2024-01-16T01:35:14.481Z,88.45
2024-01-16T01:36:14.483Z,89.96
2024-01-16T01:37:14.512Z,89.88
2024-01-16T01:38:14.593Z,89.80
2024-01-16T01:39:14.569Z,88.27
2024-01-16T01:40:14.593Z,89.45
2024-01-16T01:41:14.623Z,89.19
2024-01-16T01:42:14.650Z,89.45
2024-01-16T01:43:14.678Z,89.59
2024-01-16T01:44:14.702Z,90.73
2024-01-16T01:45:14.682Z,90.02
2024-01-16T01:46:14.694Z,89.33
2024-01-16T01:47:14.789Z,88.30
2024-01-16T01:48:14.930Z,88.55
2024-01-16T01:49:14.822Z,90.28
2024-01-16T01:50:14.863Z,89.49
2024-01-16T01:51:14.826Z,86.83
2024-01-16T01:52:14.876Z,88.70
2024-01-16T01:53:14.934Z,90.03
2024-01-16T01:54:14.928Z,89.21
2024-01-16T01:55:14.990Z,89.80
2024-01-16T01:56:14.997Z,89.27
2024-01-16T01:57:14.961Z,89.72
2024-01-16T01:58:14.960Z,89.34
2024-01-16T01:59:15.001Z,87.60
2024-01-16T02:00:15.035Z,89.80
2024-01-16T02:01:15.170Z,87.75
2024-01-16T02:02:15.143Z,86.52
2024-01-16T02:03:15.180Z,88.64
2024-01-16T02:04:15.171Z,87.50
2024-01-16T02:05:15.220Z,88.93
2024-01-16T02:06:15.306Z,89.08
2024-01-16T02:07:15.222Z,89.43
2024-01-16T02:08:15.316Z,89.84
2024-01-16T02:09:15.310Z,89.50
2024-01-16T02:10:15.313Z,88.30
2024-01-16T02:11:15.392Z,90.37
2024-01-16T02:12:15.349Z,88.51
2024-01-16T02:13:15.356Z,87.85
2024-01-16T02:14:15.478Z,89.75
2024-01-16T02:15:15.441Z,89.92
2024-01-16T02:16:15.451Z,89.09
2024-01-16T02:17:15.453Z,88.74
2024-01-16T02:18:15.539Z,88.35
2024-01-16T02:19:15.524Z,88.06
2024-01-16T02:20:15.585Z,88.90
2024-01-16T02:21:15.584Z,87.46
2024-01-16T02:22:15.623Z,88.57
2024-01-16T02:23:15.680Z,90.01
2024-01-16T02:24:15.649Z,87.59
2024-01-16T02:25:15.671Z,89.86
2024-01-16T02:26:15.793Z,87.59
2024-01-16T02:27:15.720Z,88.24
2024-01-16T02:28:15.761Z,89.98
2024-01-16T02:29:15.781Z,86.96
2024-01-16T02:30:15.915Z,87.06
2024-01-16T02:31:15.862Z,87.42
2024-01-16T02:32:15.904Z,90.06
2024-01-16T02:33:16.084Z,86.36
2024-01-16T02:34:16.085Z,87.43
2024-01-16T02:35:16.038Z,87.88
2024-01-16T02:36:16.038Z,88.53
2024-01-16T02:37:16.090Z,88.64
2024-01-16T02:38:16.160Z,89.68
2024-01-16T02:39:16.147Z,88.71
2024-01-16T02:40:16.225Z,87.56
2024-01-16T02:41:16.285Z,87.83
2024-01-16T02:42:16.225Z,88.01
2024-01-16T02:43:16.276Z,86.77
2024-01-16T02:44:16.402Z,88.91
2024-01-16T02:45:16.342Z,86.79
2024-01-16T02:46:16.427Z,87.48
2024-01-16T02:47:16.415Z,88.76
2024-01-16T02:48:16.570Z,87.44
2024-01-16T02:49:16.510Z,87.42
2024-01-16T02:50:16.558Z,88.25
2024-01-16T02:51:16.567Z,86.90
2024-01-16T02:52:16.606Z,86.99
2024-01-16T02:53:16.671Z,87.55
2024-01-16T02:54:16.650Z,87.69
2024-01-16T02:55:16.674Z,85.84
2024-01-16T02:56:16.738Z,87.87
2024-01-16T02:57:16.782Z,86.15
2024-01-16T02:58:16.816Z,86.87
2024-01-16T02:59:16.882Z,86.66
2024-01-16T03:00:16.859Z,86.58
2024-01-16T03:01:16.976Z,86.25
2024-01-16T03:02:16.961Z,85.65
2024-01-16T03:03:16.978Z,85.33
2024-01-16T03:04:16.988Z,86.00
2024-01-16T03:05:17.099Z,89.42
2024-01-16T03:06:17.183Z,86.55
2024-01-16T03:07:17.100Z,86.64
2024-01-16T03:08:17.192Z,85.70
2024-01-16T03:09:17.145Z,86.24
2024-01-16T03:10:17.211Z,86.16
2024-01-16T03:11:17.273Z,85.39
2024-01-16T03:12:17.290Z,86.20
2024-01-16T03:13:17.348Z,85.72
2024-01-16T03:14:17.459Z,85.96
2024-01-16T03:15:17.402Z,85.30
2024-01-16T03:16:17.408Z,85.77
2024-01-16T03:17:17.472Z,87.06
2024-01-16T03:18:17.647Z,85.86
2024-01-16T03:19:17.533Z,87.10
2024-01-16T03:20:17.633Z,86.40
2024-01-16T03:21:17.606Z,84.92
2024-01-16T03:22:17.604Z,87.18
2024-01-16T03:23:17.668Z,86.56
2024-01-16T03:24:17.710Z,85.96
2024-01-16T03:25:17.721Z,86.58
2024-01-16T03:26:17.891Z,86.01
2024-01-16T03:27:17.821Z,86.05
2024-01-16T03:28:17.830Z,84.01
2024-01-16T03:29:18.003Z,85.67
2024-01-16T03:30:18.096Z,85.38
2024-01-16T03:31:17.992Z,86.04
2024-01-16T03:32:17.998Z,83.63
2024-01-16T03:33:18.225Z,84.87
2024-01-16T03:34:18.040Z,85.92
2024-01-16T03:35:18.083Z,86.49
2024-01-16T03:36:18.090Z,87.12
2024-01-16T03:37:18.160Z,86.12
2024-01-16T03:38:18.201Z,85.12
2024-01-16T03:39:18.220Z,84.87
2024-01-16T03:40:18.283Z,85.62
2024-01-16T03:41:18.318Z,84.42
2024-01-16T03:42:18.332Z,85.71
2024-01-16T03:43:18.364Z,84.36
2024-01-16T03:44:18.448Z,85.78
2024-01-16T03:45:18.443Z,85.30
2024-01-16T03:46:18.503Z,83.78
2024-01-16T03:47:18.554Z,84.06
2024-01-16T03:48:18.767Z,86.36
2024-01-16T03:49:18.692Z,85.64
2024-01-16T03:50:18.713Z,84.55
2024-01-16T03:51:18.711Z,83.91
2024-01-16T03:52:18.728Z,84.75
2024-01-16T03:53:18.842Z,86.55
2024-01-16T03:54:18.845Z,85.62
2024-01-16T03:55:18.910Z,84.22
2024-01-16T03:56:19.009Z,85.46
2024-01-16T03:57:18.995Z,85.77
2024-01-16T03:58:19.023Z,85.12
2024-01-16T03:59:19.082Z,86.36
2024-01-16T04:00:19.099Z,84.36
2024-01-16T04:01:19.211Z,84.36
2024-01-16T04:02:19.339Z,83.40
2024-01-16T04:03:19.249Z,83.73
2024-01-16T04:04:19.331Z,85.28
2024-01-16T04:05:19.497Z,84.25
2024-01-16T04:06:19.501Z,85.14
2024-01-16T04:07:19.470Z,85.94
2024-01-16T04:08:26.616Z,50.00
2024-01-16T04:09:26.572Z,50.00
2024-01-16T04:10:26.568Z,50.00
2024-01-16T04:11:26.592Z,50.00
2024-01-16T04:12:26.582Z,50.00
2024-01-16T04:13:26.591Z,50.00
2024-01-16T04:14:26.619Z,53.17
2024-01-16T04:15:26.599Z,50.84
2024-01-16T04:16:26.572Z,51.05
2024-01-16T04:17:26.625Z,52.98
2024-01-16T04:18:26.604Z,51.07
2024-01-16T04:19:26.589Z,50.72
2024-01-16T04:20:26.586Z,50.47
2024-01-16T04:21:26.582Z,50.00
2024-01-16T04:22:26.585Z,50.77
2024-01-16T04:23:26.624Z,50.71
2024-01-16T04:24:26.614Z,52.26
2024-01-16T04:25:26.606Z,52.19
2024-01-16T04:26:26.626Z,54.21
2024-01-16T04:27:26.587Z,52.62
2024-01-16T04:28:26.598Z,51.48
2024-01-16T04:29:26.671Z,51.37
2024-01-16T04:30:26.636Z,53.56
2024-01-16T04:31:33.802Z,50.00
2024-01-16T04:32:33.919Z,50.00
2024-01-16T04:33:33.876Z,50.00
2024-01-16T04:34:33.725Z,50.00
2024-01-16T04:35:33.773Z,50.00
2024-01-16T04:36:33.754Z,50.65
2024-01-16T04:37:33.763Z,52.30
2024-01-16T04:38:33.802Z,51.47
2024-01-16T04:39:33.732Z,53.98
2024-01-16T04:40:33.747Z,51.47
2024-01-16T04:41:33.811Z,51.01
2024-01-16T04:42:33.757Z,52.23
2024-01-16T04:43:33.782Z,54.25
2024-01-16T04:44:33.797Z,53.27
2024-01-16T04:45:33.767Z,52.43
2024-01-16T04:46:33.747Z,53.41
2024-01-16T04:47:33.873Z,52.85
2024-01-16T04:48:33.805Z,51.77
2024-01-16T04:49:33.854Z,51.41
2024-01-16T04:50:33.859Z,53.00
2024-01-16T04:51:33.738Z,52.91
2024-01-16T04:52:33.744Z,51.00
2024-01-16T04:53:33.850Z,51.34
2024-01-16T04:54:33.750Z,51.01
2024-01-16T04:55:33.756Z,51.90
2024-01-16T04:56:33.778Z,50.55
2024-01-16T04:57:33.751Z,52.51
2024-01-16T04:58:33.767Z,52.23
2024-01-16T04:59:33.819Z,51.17
2024-01-16T05:00:33.839Z,55.41
2024-01-16T05:01:33.821Z,52.26
2024-01-16T05:02:33.964Z,53.22
2024-01-16T05:03:33.991Z,52.42
2024-01-16T05:04:34.004Z,50.25
2024-01-16T05:05:34.233Z,52.47
2024-01-16T05:06:34.183Z,50.07
2024-01-16T05:07:34.181Z,50.40
2024-01-16T05:08:34.267Z,50.21
2024-01-16T05:09:34.251Z,50.81
2024-01-16T05:10:34.352Z,50.00
2024-01-16T05:11:34.416Z,50.86
2024-01-16T05:12:34.460Z,51.39
2024-01-16T05:13:34.471Z,51.69
2024-01-16T05:14:34.574Z,50.98
2024-01-16T05:15:34.615Z,50.00
2024-01-16T05:16:34.669Z,51.18
2024-01-16T05:17:34.824Z,51.57
2024-01-16T05:18:34.990Z,53.35
2024-01-16T05:19:34.879Z,50.03
2024-01-16T05:20:34.983Z,51.80
2024-01-16T05:21:35.030Z,50.00
2024-01-16T05:22:35.046Z,50.00
2024-01-16T05:23:35.202Z,52.64
2024-01-16T05:24:35.224Z,50.72
2024-01-16T05:25:35.279Z,50.42
2024-01-16T05:26:35.361Z,51.87
2024-01-16T05:27:35.397Z,51.95
2024-01-16T05:28:35.445Z,53.10
2024-01-16T05:29:35.579Z,53.49
2024-01-16T05:30:35.629Z,51.19
2024-01-16T05:31:35.645Z,51.64
2024-01-16T05:32:35.797Z,50.96
2024-01-16T05:33:35.841Z,53.32
2024-01-16T05:34:35.923Z,52.38
2024-01-16T05:35:35.884Z,51.04
2024-01-16T05:36:35.970Z,52.10
2024-01-16T05:37:36.065Z,51.76
2024-01-16T05:38:36.137Z,52.34
2024-01-16T05:39:36.215Z,51.71
2024-01-16T05:40:36.285Z,51.88
2024-01-16T05:41:36.326Z,54.55
2024-01-16T05:42:36.375Z,56.61
2024-01-16T05:43:36.430Z,57.49
2024-01-16T05:44:36.623Z,56.83
2024-01-16T05:45:36.574Z,54.75
2024-01-16T05:46:36.634Z,54.89
2024-01-16T05:47:36.860Z,56.38
2024-01-16T05:48:36.841Z,57.13
2024-01-16T05:49:36.933Z,56.62
2024-01-16T05:50:37.032Z,58.25
2024-01-16T05:51:36.963Z,56.82
2024-01-16T05:52:37.049Z,59.81
2024-01-16T05:53:37.198Z,58.61
2024-01-16T05:54:37.193Z,61.22
2024-01-16T05:55:37.336Z,60.17
2024-01-16T05:56:37.379Z,61.47
2024-01-16T05:57:37.423Z,61.42
2024-01-16T05:58:37.434Z,63.59
2024-01-16T05:59:37.537Z,62.85
2024-01-16T06:00:37.604Z,62.91
2024-01-16T06:01:37.656Z,65.19
2024-01-16T06:02:37.738Z,67.05
2024-01-16T06:03:37.809Z,67.01
2024-01-16T06:04:37.920Z,65.45
2024-01-16T06:05:38.142Z,65.93
2024-01-16T06:06:38.027Z,65.92
2024-01-16T06:07:38.060Z,66.96
2024-01-16T06:08:38.164Z,71.32
2024-01-16T06:09:38.218Z,68.12
2024-01-16T06:10:38.259Z,70.43
2024-01-16T06:11:38.446Z,70.48
2024-01-16T06:12:38.409Z,69.71
2024-01-16T06:13:38.494Z,71.70
2024-01-16T06:14:38.668Z,73.22
2024-01-16T06:15:38.665Z,73.32
2024-01-16T06:16:38.683Z,74.05
2024-01-16T06:17:38.882Z,72.77
2024-01-16T06:18:38.928Z,71.52
2024-01-16T06:19:38.961Z,72.77
2024-01-16T06:20:38.987Z,76.33
2024-01-16T06:21:39.009Z,74.88
2024-01-16T06:22:39.139Z,74.26
2024-01-16T06:23:39.198Z,76.57
2024-01-16T06:24:39.241Z,76.88
2024-01-16T06:25:39.307Z,77.19
2024-01-16T06:26:39.379Z,78.86
2024-01-16T06:27:39.433Z,77.62
2024-01-16T06:28:39.511Z,75.24
2024-01-16T06:29:39.570Z,77.11
2024-01-16T06:30:39.691Z,79.17
2024-01-16T06:31:39.697Z,77.49
2024-01-16T06:32:39.945Z,79.31
2024-01-16T06:33:39.947Z,72.84
2024-01-16T06:34:39.934Z,78.01
2024-01-16T06:35:40.015Z,76.98
2024-01-16T06:36:40.025Z,77.32
2024-01-16T06:37:40.102Z,75.06
2024-01-16T06:38:40.210Z,74.55
2024-01-16T06:39:40.206Z,74.42
2024-01-16T06:40:40.310Z,73.88
2024-01-16T06:41:40.381Z,74.37
2024-01-16T06:42:40.421Z,75.35
2024-01-16T06:43:40.512Z,77.78
2024-01-16T06:44:40.603Z,76.64
2024-01-16T06:45:40.607Z,78.59
2024-01-16T06:46:40.633Z,79.29
2024-01-16T06:47:41.065Z,78.90
2024-01-16T06:48:40.985Z,77.22
2024-01-16T06:49:40.880Z,75.12
2024-01-16T06:50:40.990Z,74.15
2024-01-16T06:51:40.898Z,74.73
2024-01-16T06:52:40.973Z,73.11
2024-01-16T06:53:41.023Z,74.96
2024-01-16T06:54:41.005Z,74.27
2024-01-16T06:55:41.452Z,74.46
2024-01-16T06:56:41.137Z,77.37
2024-01-16T06:57:41.426Z,78.96
2024-01-16T06:58:41.441Z,79.82
2024-01-16T06:59:41.200Z,79.98
2024-01-16T07:00:41.184Z,80.00
2024-01-16T07:01:41.175Z,85.58
2024-01-16T07:02:41.256Z,86.12
2024-01-16T07:03:41.210Z,88.53
2024-01-16T07:04:41.186Z,91.34
2024-01-16T07:05:41.634Z,93.03
2024-01-16T07:06:41.220Z,94.90
2024-01-16T07:07:41.242Z,96.37
2024-01-16T07:08:41.261Z,97.56
2024-01-16T07:09:41.233Z,98.97
2024-01-16T07:10:41.437Z,102.43
2024-01-16T07:11:41.268Z,105.29
2024-01-16T07:12:41.214Z,106.89
2024-01-16T07:13:41.244Z,109.91
2024-01-16T07:14:41.350Z,110.18
2024-01-16T07:15:41.255Z,111.04
2024-01-16T07:16:41.259Z,112.49
2024-01-16T07:17:41.406Z,115.14
2024-01-16T07:18:43.613Z,115.15
2024-01-16T07:19:41.343Z,117.17
2024-01-16T07:20:41.467Z,118.12
2024-01-16T07:21:41.307Z,118.29
2024-01-16T07:22:41.282Z,118.58
2024-01-16T07:23:41.302Z,121.93
2024-01-16T07:24:41.307Z,123.06
2024-01-16T07:25:41.299Z,123.85
2024-01-16T07:26:41.497Z,123.02
2024-01-16T07:27:41.299Z,121.78
2024-01-16T07:28:41.259Z,123.67
2024-01-16T07:29:41.338Z,123.40
2024-01-16T07:30:41.357Z,125.21
2024-01-16T07:31:41.309Z,123.99
2024-01-16T07:32:41.500Z,125.33
2024-01-16T07:33:41.434Z,125.62
2024-01-16T07:34:41.322Z,123.74
2024-01-16T07:35:41.292Z,126.16
2024-01-16T07:36:41.294Z,127.74
2024-01-16T07:37:41.324Z,126.91
2024-01-16T07:38:41.326Z,126.78
2024-01-16T07:39:41.347Z,127.34
2024-01-16T07:40:41.320Z,129.32
2024-01-16T07:41:41.354Z,130.42
2024-01-16T07:42:41.266Z,131.32
2024-01-16T07:43:41.341Z,129.05
2024-01-16T07:44:41.370Z,130.62
2024-01-16T07:45:41.449Z,130.79
2024-01-16T07:46:41.280Z,130.29
2024-01-16T07:47:41.392Z,136.56
2024-01-16T07:48:41.422Z,138.98
2024-01-16T07:49:41.348Z,140.91
2024-01-16T07:50:41.551Z,140.93
2024-01-16T07:51:41.292Z,141.38
2024-01-16T07:52:41.303Z,138.12
2024-01-16T07:53:41.370Z,140.68
2024-01-16T07:54:41.470Z,139.94
2024-01-16T07:55:41.320Z,139.37
2024-01-16T07:56:41.382Z,136.82
2024-01-16T07:57:41.413Z,137.97
2024-01-16T07:58:41.464Z,136.86
2024-01-16T07:59:42.074Z,135.54
2024-01-16T08:00:42.025Z,133.92
2024-01-16T08:01:41.656Z,134.58
2024-01-16T08:02:41.777Z,133.99
2024-01-16T08:03:41.772Z,132.07
2024-01-16T08:04:41.817Z,131.05
2024-01-16T08:05:42.055Z,130.35
2024-01-16T08:06:42.044Z,132.79
2024-01-16T08:07:41.999Z,131.54
2024-01-16T08:08:42.048Z,129.29
2024-01-16T08:09:42.137Z,130.95
2024-01-16T08:10:42.197Z,130.88
2024-01-16T08:11:42.258Z,128.43
2024-01-16T08:12:42.220Z,127.95
2024-01-16T08:13:42.308Z,128.02
2024-01-16T08:14:42.342Z,124.78
2024-01-16T08:15:42.444Z,125.25
2024-01-16T08:16:42.406Z,127.05
2024-01-16T08:17:42.625Z,125.19
2024-01-16T08:18:42.599Z,126.23
2024-01-16T08:19:42.606Z,124.74
2024-01-16T08:20:42.609Z,124.77
2024-01-16T08:21:42.629Z,123.73
2024-01-16T08:22:42.656Z,121.68
2024-01-16T08:23:42.729Z,119.99
2024-01-16T08:24:42.983Z,121.33
2024-01-16T08:25:42.759Z,123.83
2024-01-16T08:26:42.861Z,122.40
2024-01-16T08:27:42.840Z,123.12
2024-01-16T08:28:42.843Z,115.11
2024-01-16T08:29:42.931Z,118.41
2024-01-16T08:30:42.941Z,115.52
2024-01-16T08:31:42.964Z,117.47
2024-01-16T08:32:43.144Z,114.42
2024-01-16T08:33:46.748Z,112.73
2024-01-16T08:34:43.126Z,112.77
2024-01-16T08:35:43.083Z,110.31
2024-01-16T08:36:43.057Z,109.91
2024-01-16T08:37:43.027Z,109.61
2024-01-16T08:38:43.149Z,111.32
2024-01-16T08:39:43.029Z,112.09
2024-01-16T08:40:43.027Z,111.96
2024-01-16T08:41:43.140Z,113.25
2024-01-16T08:42:43.045Z,112.74
2024-01-16T08:43:43.022Z,114.53
2024-01-16T08:44:43.060Z,113.92
2024-01-16T08:45:43.034Z,115.11
2024-01-16T08:46:43.040Z,112.16
2024-01-16T08:47:43.130Z,114.17
2024-01-16T08:48:43.166Z,116.26
2024-01-16T08:49:43.086Z,113.15
2024-01-16T08:50:43.058Z,110.25
2024-01-16T08:51:43.077Z,110.08
2024-01-16T08:52:43.068Z,110.21
2024-01-16T08:53:43.117Z,107.36
2024-01-16T08:54:43.064Z,108.09
2024-01-16T08:55:43.104Z,105.90
2024-01-16T08:56:43.159Z,104.32
2024-01-16T08:57:43.137Z,104.30
2024-01-16T08:58:43.188Z,101.82
2024-01-16T08:59:43.271Z,102.88
2024-01-16T09:00:43.286Z,99.63
2024-01-16T09:01:43.251Z,101.55
2024-01-16T09:02:43.338Z,100.55
2024-01-16T09:03:43.289Z,99.28
2024-01-16T09:04:43.367Z,97.69
2024-01-16T09:05:43.430Z,97.36
2024-01-16T09:06:43.568Z,95.86
2024-01-16T09:07:43.364Z,96.79
2024-01-16T09:08:43.413Z,94.42
2024-01-16T09:09:43.391Z,94.58
2024-01-16T09:10:43.407Z,92.22
2024-01-16T09:11:43.431Z,90.59
2024-01-16T09:12:43.452Z,89.37
2024-01-16T09:13:43.431Z,87.95
2024-01-16T09:14:43.535Z,87.80
2024-01-16T09:15:43.474Z,89.89
2024-01-16T09:16:43.476Z,88.31
2024-01-16T09:17:43.617Z,91.44
2024-01-16T09:18:43.553Z,88.49
2024-01-16T09:19:43.563Z,89.15
2024-01-16T09:20:43.608Z,87.85
2024-01-16T09:21:43.519Z,90.47
2024-01-16T09:22:43.531Z,92.50
2024-01-16T09:23:44.092Z,90.07
2024-01-16T09:24:43.545Z,91.93
2024-01-16T09:25:46.765Z,90.40
2024-01-16T09:26:43.675Z,90.42
2024-01-16T09:27:43.596Z,90.64
2024-01-16T09:28:43.584Z,90.77
2024-01-16T09:29:43.684Z,91.68
2024-01-16T09:30:43.725Z,90.81
2024-01-16T09:31:43.564Z,90.89
2024-01-16T09:32:43.664Z,103.82
2024-01-16T09:33:43.707Z,109.84
2024-01-16T09:34:43.586Z,108.35
2024-01-16T09:35:43.586Z,105.46
2024-01-16T09:36:43.573Z,101.42
2024-01-16T09:37:43.572Z,99.04
2024-01-16T09:38:43.650Z,94.81
2024-01-16T09:39:44.005Z,93.41
2024-01-16T09:40:43.784Z,91.23
2024-01-16T09:41:43.906Z,92.84
2024-01-16T09:42:43.877Z,92.48
2024-01-16T09:43:43.933Z,91.27
2024-01-16T09:44:44.068Z,90.36
2024-01-16T09:45:44.043Z,89.39
2024-01-16T09:46:44.132Z,92.92
2024-01-16T09:47:44.226Z,92.06
2024-01-16T09:48:44.243Z,93.00
2024-01-16T09:49:44.563Z,95.13
2024-01-16T09:50:44.396Z,95.90
2024-01-16T09:51:44.390Z,94.36
2024-01-16T09:52:44.463Z,95.08
2024-01-16T09:53:44.577Z,95.23
2024-01-16T09:54:44.591Z,95.71
2024-01-16T09:55:44.680Z,97.28
2024-01-16T09:56:44.848Z,95.93
2024-01-16T09:57:44.779Z,94.71
2024-01-16T09:58:44.810Z,97.24
2024-01-16T09:59:44.940Z,98.30
2024-01-16T10:00:45.017Z,98.61
2024-01-16T10:01:45.021Z,98.15
2024-01-16T10:02:45.077Z,98.96
2024-01-16T10:03:45.150Z,100.09
2024-01-16T10:04:45.521Z,100.47
2024-01-16T10:05:45.606Z,98.78
2024-01-16T10:06:45.387Z,96.87
2024-01-16T10:07:45.441Z,99.63
2024-01-16T10:08:45.496Z,97.47
2024-01-16T10:09:45.529Z,95.36
2024-01-16T10:10:49.069Z,96.91
2024-01-16T10:11:45.665Z,96.95
2024-01-16T10:12:46.017Z,95.33
2024-01-16T10:13:45.591Z,97.36
2024-01-16T10:14:45.606Z,98.86
2024-01-16T10:15:46.044Z,99.98
2024-01-16T10:16:45.569Z,99.50
2024-01-16T10:17:45.653Z,100.56
2024-01-16T10:18:45.750Z,101.81
2024-01-16T10:19:48.932Z,101.19
2024-01-16T10:20:45.578Z,103.44
2024-01-16T10:21:45.599Z,101.72
2024-01-16T10:22:45.591Z,102.92
2024-01-16T10:23:45.605Z,102.34
2024-01-16T10:24:45.597Z,102.70
2024-01-16T10:25:45.614Z,100.35
2024-01-16T10:26:45.605Z,98.21
2024-01-16T10:27:46.047Z,96.06
2024-01-16T10:28:45.591Z,94.83
2024-01-16T10:29:50.536Z,96.49
2024-01-16T10:30:46.711Z,96.58
2024-01-16T10:31:45.677Z,95.06
2024-01-16T10:32:45.837Z,92.86
2024-01-16T10:33:45.793Z,90.07
2024-01-16T10:34:45.665Z,92.17
2024-01-16T10:35:45.651Z,93.72
2024-01-16T10:36:45.587Z,94.58
2024-01-16T10:37:45.638Z,96.23
2024-01-16T10:38:45.646Z,90.96
2024-01-16T10:39:45.667Z,94.43
2024-01-16T10:40:45.759Z,94.50
2024-01-16T10:41:45.911Z,94.56
2024-01-16T10:42:45.912Z,96.90
2024-01-16T10:43:45.998Z,94.79
2024-01-16T10:44:46.046Z,93.92
2024-01-16T10:45:46.098Z,92.76
2024-01-16T10:46:46.118Z,93.75
2024-01-16T10:47:46.224Z,91.93
2024-01-16T10:48:46.603Z,90.44
2024-01-16T10:49:46.758Z,91.57
2024-01-16T10:50:46.519Z,91.08
2024-01-16T10:51:46.470Z,89.91
2024-01-16T10:52:46.546Z,89.62
2024-01-16T10:53:46.666Z,89.79
2024-01-16T10:54:46.704Z,89.27
2024-01-16T10:55:47.044Z,88.60
2024-01-16T10:56:46.806Z,89.96
2024-01-16T10:57:46.888Z,89.92
2024-01-16T10:58:46.962Z,88.87
2024-01-16T10:59:47.005Z,91.58
2024-01-16T11:00:47.089Z,90.66
2024-01-16T11:01:47.156Z,88.23
2024-01-16T11:02:47.241Z,86.90
2024-01-16T11:03:47.595Z,85.66
2024-01-16T11:04:47.343Z,80.62
2024-01-16T11:05:47.494Z,83.79
2024-01-16T11:06:47.646Z,77.16
2024-01-16T11:07:47.481Z,73.38
2024-01-16T11:08:47.606Z,70.55
2024-01-16T11:09:47.611Z,68.59
2024-01-16T11:10:47.634Z,67.98
2024-01-16T11:11:48.112Z,65.12
2024-01-16T11:12:47.725Z,64.46
2024-01-16T11:13:48.082Z,64.33
2024-01-16T11:14:47.866Z,63.76
2024-01-16T11:15:48.084Z,66.32
2024-01-16T11:16:47.986Z,66.56
2024-01-16T11:17:48.079Z,66.01
2024-01-16T11:18:48.125Z,66.02
2024-01-16T11:20:01.709Z,65.56
2024-01-16T11:21:49.337Z,64.82
2024-01-16T11:22:48.200Z,64.68
2024-01-16T11:23:48.855Z,63.29
2024-01-16T11:24:48.180Z,61.39
2024-01-16T11:25:48.188Z,61.05
2024-01-16T11:26:48.265Z,59.32
2024-01-16T11:27:48.221Z,62.41
2024-01-16T11:28:48.143Z,61.13
2024-01-16T11:29:48.167Z,62.20
2024-01-16T11:30:48.190Z,63.18
2024-01-16T11:31:48.182Z,65.46
2024-01-16T11:32:48.312Z,66.27
2024-01-16T11:33:48.296Z,63.70
2024-01-16T11:34:48.171Z,64.94
2024-01-16T11:35:48.189Z,63.19
2024-01-16T11:36:48.163Z,62.16
2024-01-16T11:37:48.194Z,57.84
2024-01-16T11:38:48.216Z,55.26
2024-01-16T11:39:48.176Z,52.65
2024-01-16T11:40:48.639Z,52.32
2024-01-16T11:41:48.222Z,50.00
2024-01-16T11:42:48.196Z,50.00
2024-01-16T11:43:48.284Z,52.65
2024-01-16T11:44:49.222Z,50.00
2024-01-16T11:45:48.363Z,52.28
2024-01-16T11:46:48.396Z,50.00
2024-01-16T11:47:48.534Z,55.54
2024-01-16T11:48:48.581Z,51.91
2024-01-16T11:49:48.528Z,50.54
2024-01-16T11:50:48.689Z,50.00
2024-01-16T11:51:48.621Z,51.00
2024-01-16T11:52:48.671Z,49.65
2024-01-16T11:53:48.803Z,50.29
2024-01-16T11:54:48.777Z,55.88
2024-01-16T11:55:48.792Z,54.12
2024-01-16T11:56:49.422Z,53.29
2024-01-16T11:57:48.893Z,51.64
2024-01-16T11:58:49.090Z,53.30
2024-01-16T11:59:49.164Z,50.93
2024-01-16T12:00:49.141Z,52.28
2024-01-16T12:01:49.043Z,51.48
2024-01-16T12:02:49.166Z,53.15
2024-01-16T12:03:49.619Z,51.86
2024-01-16T12:04:49.177Z,50.00
2024-01-16T12:05:49.248Z,52.22
2024-01-16T12:06:49.339Z,51.27
2024-01-16T12:07:49.296Z,50.00
2024-01-16T12:08:49.350Z,51.07
2024-01-16T12:09:49.315Z,51.26
2024-01-16T12:10:49.412Z,50.00
2024-01-16T12:11:49.426Z,52.50
2024-01-16T12:12:49.653Z,50.00
2024-01-16T12:13:49.482Z,49.04
2024-01-16T12:14:49.555Z,53.52
2024-01-16T12:15:49.593Z,51.17
2024-01-16T12:16:50.073Z,54.09
2024-01-16T12:17:49.785Z,50.29
2024-01-16T12:18:50.121Z,51.67
2024-01-16T12:19:49.737Z,50.67
2024-01-16T12:20:49.769Z,50.44
2024-01-16T12:21:50.094Z,52.16
2024-01-16T12:22:49.847Z,51.28
2024-01-16T12:23:56.234Z,51.44
2024-01-16T12:24:50.830Z,50.26
2024-01-16T12:26:01.802Z,48.81
2024-01-16T12:26:50.949Z,49.60
2024-01-16T12:27:49.844Z,51.46
2024-01-16T12:28:49.883Z,51.43
2024-01-16T12:29:49.960Z,52.95
2024-01-16T12:30:49.957Z,51.69
2024-01-16T12:31:49.846Z,52.52
2024-01-16T12:32:58.601Z,53.94
2024-01-16T12:33:58.184Z,53.96
2024-01-16T12:34:50.986Z,53.97
2024-01-16T12:35:50.580Z,54.41
2024-01-16T12:36:49.872Z,55.27
2024-01-16T12:37:49.865Z,56.70
2024-01-16T12:38:49.909Z,58.30
2024-01-16T12:39:49.893Z,56.21
2024-01-16T12:40:49.878Z,56.89
2024-01-16T12:41:49.907Z,56.95
2024-01-16T12:42:49.870Z,56.71
2024-01-16T12:43:57.743Z,53.85
2024-01-16T12:44:50.937Z,53.92
2024-01-16T12:45:49.898Z,53.85
2024-01-16T12:46:49.876Z,54.14
2024-01-16T12:47:52.096Z,55.40
2024-01-16T12:48:56.561Z,53.94
2024-01-16T12:49:50.993Z,53.98